»·PEaware :: N565AD KRAL-KTOA

N565AD :: KRAL-KTOA

FLIGHT INFORMATION

Flight Status: Arrived
Operator: Privately registered:
United States
More flights under this callsign
Pilot: Slade E. (12022)
Aircraft: CESSNA 172 SKYHAWK
(C172)
More flights by this aircraft type
Origin: KRAL Riverside Mun
United States
Destination: KTOA Zamperini
United States
More flights between these airports :: More routes between these airports
Route: PDZ PDZ270/015 DOWDD V394 SLI
File this flight plan on PilotEdge
Remarks:
Altitude:
(Current/Filed)
4,000ft
Speed:
(Current/Filed)
100kts
Departed: 05-Nov-19 04:27 PM
Arrived: 05-Nov-19 04:59 PM
Distance/Time
Traveled:
46nm/0:31
Distance/Time
To Go:
Arrived

Flight Plot

Page will automatically refresh every two minutes.

Flight plan parsing failed; only flown route is shown


Map Options




Map Legend


Flown Route
Filed Route
Departure Airport
Arrival Airport
Navaid (VOR, NDB)
Fix

Horizontal Profiles

Position Reports

Time Latitude Longitude Heading Altitude Ground
Speed
05-Nov-19 16:02 33.950903 -117.447333 9 777ft 0kts
05-Nov-19 16:03 33.950903 -117.447333 9 777ft 0kts
05-Nov-19 16:04 33.950903 -117.447333 9 777ft 0kts
05-Nov-19 16:05 33.950903 -117.447333 9 777ft 0kts
05-Nov-19 16:06 33.950903 -117.447333 9 777ft 0kts
05-Nov-19 16:07 33.950903 -117.447333 9 777ft 0kts
05-Nov-19 16:08 33.950903 -117.447333 9 777ft 0kts
05-Nov-19 16:09 33.950903 -117.447333 9 777ft 0kts
05-Nov-19 16:09 33.950903 -117.447333 9 777ft 0kts
05-Nov-19 16:11 33.950903 -117.447333 9 777ft 0kts
05-Nov-19 16:12 33.950903 -117.447333 9 777ft 0kts
05-Nov-19 16:12 33.950903 -117.447333 9 777ft 0kts
05-Nov-19 16:14 33.950903 -117.447333 9 777ft 0kts
05-Nov-19 16:15 33.950903 -117.447333 9 777ft 0kts
05-Nov-19 16:15 33.950903 -117.447333 9 777ft 0kts
05-Nov-19 16:16 33.950903 -117.447333 9 777ft 0kts
05-Nov-19 16:18 33.951447 -117.447513 49 777ft 8kts
05-Nov-19 16:18 33.951965 -117.446258 69 777ft 8kts
05-Nov-19 16:19 33.951039 -117.441174 103 777ft 21kts
05-Nov-19 16:21 33.949812 -117.434968 108 777ft 10kts
05-Nov-19 16:21 33.949843 -117.434695 277 777ft 0kts
05-Nov-19 16:22 33.949843 -117.434695 277 777ft 0kts
05-Nov-19 16:23 33.949843 -117.434695 277 777ft 0kts
05-Nov-19 16:24 33.949850 -117.434767 276 777ft 0kts
05-Nov-19 16:25 33.950643 -117.435115 287 777ft 11kts
05-Nov-19 16:26 33.954741 -117.456464 280 1343ft 76kts
05-Nov-19 16:27 33.958742 -117.482223 278 2193ft 80kts
05-Nov-19 16:28 33.943565 -117.502983 223 2990ft 87kts
05-Nov-19 16:29 33.925107 -117.522207 223 3783ft 89kts
05-Nov-19 16:30 33.923518 -117.552037 285 4010ft 101kts
05-Nov-19 16:31 33.930805 -117.584454 285 4009ft 100kts
05-Nov-19 16:32 33.938170 -117.616717 285 4009ft 99kts
05-Nov-19 16:33 33.945246 -117.649033 285 4009ft 99kts
05-Nov-19 16:34 33.952383 -117.681250 284 4011ft 99kts
05-Nov-19 16:35 33.959622 -117.713561 284 4010ft 100kts
05-Nov-19 16:36 33.966425 -117.745944 275 4010ft 99kts
05-Nov-19 16:37 33.966319 -117.778919 259 4007ft 99kts
05-Nov-19 16:38 33.949746 -117.805697 232 4010ft 101kts
05-Nov-19 16:39 33.931595 -117.831607 232 4010ft 101kts
05-Nov-19 16:40 33.913546 -117.857501 232 4011ft 101kts
05-Nov-19 16:41 33.895579 -117.883393 232 4013ft 101kts
05-Nov-19 16:42 33.877460 -117.909680 232 3712ft 102kts
05-Nov-19 16:43 33.859395 -117.936011 232 3214ft 102kts
05-Nov-19 16:44 33.841295 -117.962444 233 2713ft 102kts
05-Nov-19 16:45 33.823569 -117.989115 233 2216ft 102kts
05-Nov-19 16:46 33.806532 -118.015437 233 2035ft 97kts
05-Nov-19 16:47 33.789484 -118.041244 231 2037ft 99kts
05-Nov-19 16:48 33.778693 -118.070962 256 2039ft 98kts
05-Nov-19 16:49 33.772077 -118.103026 256 2040ft 99kts
05-Nov-19 16:50 33.765023 -118.134975 256 2039ft 98kts
05-Nov-19 16:51 33.757808 -118.166917 256 2039ft 98kts
05-Nov-19 16:52 33.752739 -118.199230 262 2039ft 98kts
05-Nov-19 16:53 33.748750 -118.231611 263 2039ft 97kts
05-Nov-19 16:54 33.751954 -118.260581 305 1861ft 87kts
05-Nov-19 16:55 33.766470 -118.283273 304 1331ft 83kts
05-Nov-19 16:56 33.780472 -118.304973 303 829ft 80kts
05-Nov-19 16:57 33.795246 -118.326025 300 328ft 81kts
05-Nov-19 16:58 33.803899 -118.339463 309 98ft 23kts
05-Nov-19 16:59 33.805865 -118.343818 289 98ft 0kts
05-Nov-19 17:00 33.805570 -118.345349 218 98ft 13kts
05-Nov-19 17:01 33.803115 -118.343940 128 98ft 14kts

Navigation Log

Ident Type
Flight plan parsing failed, navigation log unavailable